Etusivu
METAR-TAF:

METAR-TAF

Lentoasemat :

Aydın, Turkki

Leveyspiiri: 37-48-54N, Pituuspiiri: 27-53-21E, korkeus merenpinnasta: 31 m

Tämänhetkinen sää

Tämä raportti tehtiin 5 tuntia ja 10 minuuttia sitten, kello 12.50 UTC
Tuuli 11 kn lännestä/luoteesta, vaihdellen lännen/lounaan ja luoteen välillä
Lämpötila 25°C
Kosteus 30%
Ilmanpaine 1015 hPa
Näkyvyys 10 km tai enemmän
Hajanaisia pilviä 4000 ft:n korkeudessa

METAR: LTBD 291250Z 29011KT 250V320 9999 SCT040 25/06 Q1015

Aika: 21:00 (18:00 UTC)

Sääennuste

Tämä raportti tehtiin 4 tuntia ja 20 minuuttia sitten, kello 13.40 UTC
Ennuste voimassa 29. päivästä klo 15 UTC - 29. päivään klo 24 UTC
Tuuli 12 kn lännestä
Näkyvyys 10 km tai enemmän
Hajanaisia pilviä 3000 ft:n korkeudessa
Tulossa
29. päivästä klo 18 UTC - 29. päivään klo 21 UTC
Tuuli 2 kn eri suunnista
Näkyvyys 10 km tai enemmän
ei pilviä alle 1500 m:ssä eikä cumulonimbus-pilviä

TAF: LTBD 291340Z 2915/2924 27012KT 9999 SCT030 BECMG 2918/2921 VRB02KT CAVOK

Säähavainnot ja -ennusteet yli 4000 lentoasemalta (METAR- ja TAF-raportit).

Käytössä olevat sääasemat on merkitty karttaan keltaisilla ja punaisilla pisteillä.

Aseta hiiri pisteen päälle nähdäksesi sääaseman nimen.

Klikkaa sitten nähdäksesi säähavainnot ja -ennusteet.

Kartan vaihtaminen: klikkaa mustalla rastilla varustettuja vihreitä pisteitä, niin voit zoomata sisään; viivalla varustettua vihreää pistettä, niin voit zoomata ulos tai vihreitä nuolia, niin pääset viereisille kartoille.


METAR-TAF: